Language: 


Des rapports , des résumés tant et plus, au choix de chacun....


Données statistiques de la station
Quotidien Rapport Novembre 18, 2017 Unités:  Anglais    Métrique   les deux
« Précédent Jour
Suivant Jour »
Quotidien Hebdomadaire Mensuel Annuel Actuel
  Haut: Bas: Moyen:
Température: TemperatureC °F -0.5 °F 4.5 °F
Pt de rosée: DewpointC °F -1.0 °F 4.2 °F
Humidité: Humidity % 0 % 95 %
Vitesse du vent: WindSpeedKMH mph 0.0 mph 4 mph
Rafales: WindSpeedGustKMH mph - -
Vent:- - WSW
Pression: PressurehPa in 0.0 in -
Précipitation: 4.1 in    
Historical Graphs
 
 
Données statistiques pour Novembre 18, 2017
Heure Température Point de rosée Pression Vent Vitesse du vent Refales Humidité Pluie (taux horaire)
TemperatureC °F DewpointC °F PressurehPa in Calm     Humidity % HourlyPrecipMM in
00:02 1.4 °F 1.0 °F 1026.0 in Calm     98 % 0.0 in
00:09 1.4 °F 1.0 °F 1026.0 in Calm     98 % 0.0 in
00:14 1.4 °F 1.0 °F 1026.0 in Calm     98 % 0.0 in
00:19 1.5 °F 2.0 °F 1026.0 in Calm     98 % 0.0 in
00:24 1.4 °F 1.0 °F 1026.0 in Calm     98 % 0.0 in
00:29 1.3 °F 1.0 °F 1026.0 in Calm     98 % 0.0 in
00:34 1.3 °F 1.0 °F 1026.0 in Calm     98 % 0.0 in
00:39 1.3 °F 1.0 °F 1026.0 in Calm     98 % 0.0 in
00:44 0.9 °F 1.0 °F 1026.0 in Calm     98 % 0.0 in
00:49 0.6 °F 1.0 °F 1026.0 in Calm     98 % 0.0 in
00:54 0.6 °F 1.0 °F 1026.0 in Calm     98 % 0.0 in
00:59 0.5 °F 1.0 °F 1026.0 in Calm     98 % 0.0 in
01:04 0.4 °F 1.0 °F 1026.0 in Calm     98 % 0.0 in
01:09 0.4 °F 1.0 °F 1026.0 in Calm     98 % 0.0 in
01:14 0.4 °F 1.0 °F 1026.0 in Calm     98 % 0.0 in
01:19 0.3 °F 1.0 °F 1026.0 in Calm     98 % 0.0 in
01:24 0.3 °F 1.0 °F 1026.0 in Calm     98 % 0.0 in
01:29 0.3 °F 1.0 °F 1024.9 in Calm     98 % 0.0 in
01:34 0.4 °F 1.0 °F 1024.9 in Calm     98 % 0.0 in
01:39 0.3 °F 1.0 °F 1024.9 in Calm     98 % 0.0 in
01:44 0.2 °F 0.0 °F 1023.9 in Calm     98 % 0.0 in
01:49 0.2 °F 0.0 °F 1023.9 in Calm     98 % 0.0 in
01:54 0.4 °F 1.0 °F 1023.9 in Calm     98 % 0.0 in
01:59 0.6 °F 1.0 °F 1024.9 in Calm     98 % 0.0 in
02:04 0.6 °F 1.0 °F 1024.9 in Calm     98 % 0.0 in
02:09 0.5 °F 1.0 °F 1024.9 in Calm     98 % 0.0 in
02:15 0.4 °F 1.0 °F 1024.9 in Calm     98 % 0.0 in
02:20 0.6 °F 1.0 °F 1024.9 in Calm     98 % 0.0 in
02:25 0.6 °F 1.0 °F 1024.9 in Calm     98 % 0.0 in
02:30 0.7 °F 1.0 °F 1024.9 in Calm     98 % 0.0 in
02:35 0.7 °F 1.0 °F 1024.9 in Calm     98 % 0.0 in
02:40 0.6 °F 1.0 °F 1024.9 in Calm     98 % 0.0 in
02:45 0.4 °F 1.0 °F 1024.9 in Calm     98 % 0.0 in
02:50 0.4 °F 1.0 °F 1024.9 in Calm     98 % 0.0 in
02:55 0.4 °F 1.0 °F 1024.9 in Calm     98 % 0.0 in
03:02 0.0 °F 1.0 °F 0.0 in Calm     0 % 0.0 in
03:07 0.4 °F 1.0 °F 1024.9 in Calm     98 % 0.0 in
03:12 0.3 °F 1.0 °F 1024.9 in Calm     98 % 0.0 in
03:25 0.1 °F 0.0 °F 1024.9 in Calm     98 % 0.0 in
03:30 0.2 °F 0.0 °F 1024.9 in Calm     98 % 0.0 in
03:35 0.3 °F 1.0 °F 1024.9 in Calm     98 % 0.0 in
03:40 0.3 °F 1.0 °F 1024.9 in Calm     98 % 0.0 in
03:45 0.4 °F 1.0 °F 1023.9 in Calm     98 % 0.0 in
03:50 0.4 °F 1.0 °F 1023.9 in Calm     98 % 0.0 in
03:55 0.4 °F 1.0 °F 1023.9 in Calm     98 % 0.0 in
04:00 0.3 °F 1.0 °F 1023.9 in Calm     98 % 0.0 in
04:05 0.3 °F 1.0 °F 1023.9 in Calm     98 % 0.0 in
04:10 0.1 °F 0.0 °F 1023.9 in Calm     98 % 0.0 in
04:16 0.0 °F -1.0 °F 1023.9 in Calm     98 % 0.0 in
04:21 0.0 °F -1.0 °F 1023.9 in Calm     98 % 0.0 in
04:25 0.0 °F -1.0 °F 1023.9 in Calm     98 % 0.0 in
04:26 0.0 °F -1.0 °F 1023.9 in Calm     98 % 0.0 in
04:27 0.0 °F -1.0 °F 1023.9 in Calm     98 % 0.0 in
04:36 -0.3 °F -1.0 °F 1023.9 in Calm     98 % 0.0 in
04:41 -0.3 °F -1.0 °F 1022.9 in Calm     98 % 0.0 in
04:46 -0.4 °F -1.0 °F 1022.9 in Calm     98 % 0.0 in
04:51 -0.4 °F -1.0 °F 1022.9 in Calm     98 % 0.0 in
04:56 -0.5 °F -1.0 °F 1022.9 in Calm     98 % 0.0 in
05:01 -0.5 °F -1.0 °F 1022.9 in Calm     98 % 0.0 in
05:06 -0.5 °F -1.0 °F 1022.9 in Calm     98 % 0.0 in
05:11 -0.5 °F -1.0 °F 1022.9 in Calm     98 % 0.0 in
05:16 -0.4 °F -1.0 °F 1022.9 in Calm     98 % 0.0 in
05:21 -0.4 °F -1.0 °F 1022.9 in Calm     98 % 0.0 in
05:26 -0.3 °F -1.0 °F 1022.9 in Calm     98 % 0.0 in
05:31 -0.2 °F -1.0 °F 1022.9 in Calm     98 % 0.0 in
05:36 0.0 °F -1.0 °F 1022.9 in Calm     98 % 0.0 in
05:41 0.0 °F -1.0 °F 1022.9 in Calm     98 % 0.0 in
05:46 0.1 °F 0.0 °F 1022.9 in Calm     98 % 0.0 in
05:51 0.0 °F -1.0 °F 1022.9 in Calm     98 % 0.0 in
05:56 -0.1 °F -1.0 °F 1021.9 in Calm     98 % 0.0 in
06:01 -0.1 °F -1.0 °F 1021.9 in Calm     98 % 0.0 in
06:06 -0.2 °F -1.0 °F 1021.9 in Calm     98 % 0.0 in
06:11 -0.4 °F -1.0 °F 1022.9 in Calm     98 % 0.0 in
06:16 -0.4 °F -1.0 °F 1022.9 in Calm     98 % 0.0 in
06:21 -0.4 °F -1.0 °F 1022.9 in Calm     98 % 0.0 in
06:26 -0.4 °F -1.0 °F 1022.9 in Calm     98 % 0.0 in
06:31 -0.4 °F -1.0 °F 1022.9 in Calm     98 % 0.0 in
06:36 -0.4 °F -1.0 °F 1022.9 in Calm     98 % 0.0 in
06:41 -0.5 °F -1.0 °F 1022.9 in Calm     98 % 0.0 in
06:46 -0.4 °F -1.0 °F 1022.9 in Calm     98 % 0.0 in
06:51 -0.3 °F -1.0 °F 1022.9 in Calm     98 % 0.0 in
06:56 -0.2 °F -1.0 °F 1022.9 in Calm     98 % 0.0 in
07:01 -0.2 °F -1.0 °F 1022.9 in Calm     98 % 0.0 in
07:06 0.0 °F -1.0 °F 1022.9 in Calm     98 % 0.0 in
07:11 0.1 °F 0.0 °F 1022.9 in Calm     98 % 0.0 in
07:16 0.2 °F 0.0 °F 1022.9 in Calm     98 % 0.0 in
07:21 0.3 °F 1.0 °F 1022.9 in Calm     98 % 0.0 in
07:27 0.4 °F 1.0 °F 1022.9 in Calm     98 % 0.0 in
07:32 0.4 °F 1.0 °F 1022.9 in Calm     98 % 0.0 in
07:37 0.5 °F 1.0 °F 1022.9 in Calm     98 % 0.0 in
07:42 0.5 °F 1.0 °F 1022.9 in Calm     98 % 0.0 in
07:47 0.6 °F 1.0 °F 1022.9 in Calm     98 % 0.0 in
07:52 0.7 °F 1.0 °F 1022.9 in Calm     98 % 0.0 in
07:57 0.7 °F 1.0 °F 1022.9 in Calm     98 % 0.0 in
08:02 0.8 °F 1.0 °F 1022.9 in Calm     98 % 0.0 in
08:07 0.8 °F 1.0 °F 1022.9 in Calm     98 % 0.0 in
08:12 0.9 °F 1.0 °F 1022.9 in Calm     98 % 0.0 in
08:17 0.9 °F 1.0 °F 1022.9 in Calm     98 % 0.0 in
08:22 0.9 °F 1.0 °F 1022.9 in Calm     98 % 0.0 in
08:27 0.9 °F 1.0 °F 1022.9 in Calm     98 % 0.0 in
08:32 1.0 °F 1.0 °F 1022.9 in Calm     98 % 0.0 in
08:37 1.0 °F 1.0 °F 1022.9 in Calm     98 % 0.0 in
08:42 1.1 °F 1.0 °F 1021.9 in Calm     98 % 0.0 in
08:47 1.1 °F 1.0 °F 1021.9 in Calm     98 % 0.0 in
08:52 1.2 °F 1.0 °F 1021.9 in Calm     98 % 0.0 in
08:57 1.3 °F 1.0 °F 1022.9 in Calm     98 % 0.0 in
09:02 1.4 °F 1.0 °F 1022.9 in Calm     98 % 0.0 in
09:07 1.5 °F 2.0 °F 1022.9 in Calm     98 % 0.0 in
09:12 1.5 °F 2.0 °F 1022.9 in Calm     98 % 0.0 in
09:17 1.7 °F 2.0 °F 1022.9 in Calm     98 % 0.0 in
09:22 1.9 °F 2.0 °F 1022.9 in Calm     98 % 0.0 in
09:27 1.9 °F 2.0 °F 1022.9 in Calm     98 % 0.0 in
09:32 1.9 °F 2.0 °F 1022.9 in Calm     98 % 0.0 in
09:37 1.9 °F 2.0 °F 1022.9 in Calm     98 % 0.0 in
09:42 1.9 °F 2.0 °F 1022.9 in Calm     98 % 0.0 in
09:47 1.9 °F 2.0 °F 1022.9 in Calm     98 % 0.0 in
09:52 1.9 °F 2.0 °F 1022.9 in Calm     98 % 0.0 in
09:57 1.9 °F 2.0 °F 1022.9 in Calm     98 % 0.0 in
10:02 1.9 °F 2.0 °F 1022.9 in Calm     98 % 0.0 in
10:07 1.9 °F 2.0 °F 1022.9 in Calm     98 % 0.0 in
10:12 1.9 °F 2.0 °F 1022.9 in Calm     98 % 0.0 in
10:17 1.9 °F 2.0 °F 1022.9 in Calm     98 % 0.0 in
10:22 1.9 °F 2.0 °F 1022.9 in Calm     98 % 0.0 in
10:27 1.9 °F 2.0 °F 1023.9 in Calm     98 % 0.0 in
10:32 1.9 °F 2.0 °F 1023.9 in Calm     98 % 0.0 in
10:37 1.9 °F 2.0 °F 1023.9 in Calm     98 % 0.0 in
10:42 1.9 °F 2.0 °F 1022.9 in Calm     98 % 0.0 in
10:47 1.9 °F 2.0 °F 1022.9 in Calm     98 % 0.0 in
10:53 1.9 °F 2.0 °F 1022.9 in Calm     98 % 0.0 in
10:58 1.9 °F 2.0 °F 1022.9 in Calm     98 % 0.0 in
11:03 1.9 °F 2.0 °F 1022.9 in Calm     98 % 0.3 in
11:08 1.9 °F 2.0 °F 1022.9 in Calm     98 % 0.3 in
11:13 1.9 °F 2.0 °F 1022.9 in Calm     98 % 0.3 in
11:18 1.9 °F 2.0 °F 1022.9 in Calm     98 % 0.3 in
11:23 1.9 °F 2.0 °F 1022.9 in Calm     98 % 0.3 in
11:28 1.9 °F 2.0 °F 1022.9 in Calm     98 % 0.3 in
11:33 1.9 °F 2.0 °F 1022.9 in Calm     98 % 0.3 in
11:35 1.9 °F 2.0 °F 1022.9 in Calm     98 % 0.3 in
11:40 1.9 °F 2.0 °F 1021.9 in Calm     98 % 0.3 in
11:46 1.9 °F 2.0 °F 1021.9 in Calm     98 % 0.3 in
11:51 1.9 °F 2.0 °F 1021.9 in Calm     98 % 0.3 in
11:56 1.9 °F 2.0 °F 1021.9 in Calm     98 % 0.3 in
12:01 1.9 °F 2.0 °F 1021.9 in Calm     98 % 0.0 in
12:06 1.9 °F 2.0 °F 1021.9 in Calm     98 % 0.0 in
12:11 1.9 °F 2.0 °F 1021.9 in Calm     98 % 0.0 in
12:16 1.9 °F 2.0 °F 1021.9 in Calm     98 % 0.0 in
12:17 1.9 °F 2.0 °F 1021.9 in Calm     98 % 0.0 in
12:22 1.9 °F 2.0 °F 1021.9 in Calm     98 % 0.0 in
12:27 9.3 °F 7.0 °F 1021.9 in Calm     82 % 0.0 in
12:32 9.3 °F 7.0 °F 1021.9 in Calm     82 % 0.0 in
12:37 9.3 °F 7.0 °F 1021.9 in Calm     82 % 0.0 in
12:42 9.3 °F 7.0 °F 1020.9 in Calm     82 % 0.0 in
12:47 9.3 °F 7.0 °F 1020.9 in Calm     82 % 0.0 in
12:52 9.3 °F 7.0 °F 1020.9 in Calm     82 % 0.0 in
12:57 9.3 °F 7.0 °F 1020.9 in Calm     82 % 0.0 in
13:02 9.3 °F 7.0 °F 1020.9 in Calm     82 % 0.0 in
13:08 9.3 °F 7.0 °F 1020.9 in Calm     82 % 0.0 in
13:13 10.7 °F 7.0 °F 1020.9 in Calm     77 % 0.0 in
13:18 10.6 °F 7.0 °F 1020.9 in Calm     77 % 0.0 in
13:23 10.6 °F 7.0 °F 1020.9 in Calm     77 % 0.0 in
13:28 10.4 °F 7.0 °F 1020.9 in Calm     77 % 0.0 in
13:33 10.4 °F 6.0 °F 1020.9 in Calm     76 % 0.0 in
13:38 10.3 °F 6.0 °F 1020.9 in Calm     76 % 0.0 in
13:43 10.3 °F 6.0 °F 1020.9 in Calm     76 % 0.0 in
13:48 10.2 °F 7.0 °F 1020.9 in Calm     77 % 0.0 in
13:53 10.2 °F 7.0 °F 1020.9 in Calm     78 % 0.0 in
13:58 10.1 °F 6.0 °F 1020.9 in Calm     78 % 0.0 in
14:03 10.1 °F 7.0 °F 1020.9 in Calm     79 % 0.0 in
14:08 10.1 °F 7.0 °F 1020.9 in Calm     80 % 0.0 in
14:13 10.0 °F 7.0 °F 1020.9 in Calm     80 % 0.0 in
14:18 10.0 °F 7.0 °F 1020.9 in Calm     81 % 0.0 in
14:23 10.0 °F 7.0 °F 1020.9 in Calm     81 % 0.0 in
14:28 10.0 °F 7.0 °F 1020.9 in Calm     81 % 0.0 in
14:33 9.9 °F 7.0 °F 1020.9 in Calm     82 % 0.0 in
14:38 9.9 °F 7.0 °F 1020.9 in Calm     82 % 0.0 in
14:42 9.9 °F 7.0 °F 1020.9 in Calm     83 % 0.0 in
14:47 9.9 °F 7.0 °F 1020.9 in Calm     83 % 0.0 in
14:52 9.9 °F 8.0 °F 1020.9 in Calm     84 % 0.0 in
14:57 9.8 °F 7.0 °F 1019.9 in WSW 10.1 mph 10.1 mph 84 % 0.0 in
15:03 9.7 °F 7.0 °F 1019.9 in WSW 10.1 mph 10.1 mph 84 % 0.0 in
15:08 9.7 °F 8.0 °F 1019.9 in WSW 10.1 mph 10.1 mph 85 % 0.0 in
15:13 9.6 °F 8.0 °F 1019.9 in WSW 10.1 mph 10.1 mph 85 % 0.0 in
15:18 9.4 °F 8.0 °F 1019.9 in WSW 10.1 mph 10.1 mph 88 % 0.0 in
15:23 9.3 °F 8.0 °F 1019.9 in WSW 10.1 mph 10.1 mph 90 % 0.0 in
15:28 9.1 °F 8.0 °F 1019.9 in WSW 10.1 mph 10.1 mph 91 % 0.0 in
15:33 9.0 °F 8.0 °F 1019.9 in WSW 10.1 mph 10.1 mph 93 % 0.0 in
15:38 8.9 °F 8.0 °F 1019.9 in WSW 10.1 mph 10.1 mph 93 % 0.0 in
15:43 8.8 °F 9.0 °F 1019.9 in WSW 10.1 mph 10.1 mph 95 % 0.0 in
15:48 8.8 °F 9.0 °F 1019.9 in WSW 10.1 mph 10.1 mph 96 % 0.0 in
15:53 8.7 °F 9.0 °F 1019.9 in WSW 10.1 mph 10.1 mph 96 % 0.0 in
15:58 8.7 °F 9.0 °F 1018.8 in WSW 10.1 mph 10.1 mph 97 % 0.0 in
16:03 8.7 °F 9.0 °F 1018.8 in WSW 10.5 mph 10.5 mph 97 % 0.0 in
16:10 8.7 °F 9.0 °F 1018.8 in WSW 10.5 mph 10.5 mph 97 % 0.0 in
16:15 8.5 °F 9.0 °F 1018.8 in WSW 10.5 mph 10.5 mph 98 % 0.3 in
16:20 8.5 °F 9.0 °F 1018.8 in WSW 10.5 mph 10.5 mph 98 % 0.3 in
16:25 8.5 °F 9.0 °F 1018.8 in WSW 10.5 mph 10.5 mph 98 % 0.3 in
16:30 8.5 °F 9.0 °F 1018.8 in WSW 10.5 mph 10.5 mph 98 % 0.5 in
16:35 8.5 °F 9.0 °F 1018.8 in WSW 10.5 mph 10.5 mph 98 % 0.5 in
16:40 8.5 °F 9.0 °F 1018.8 in WSW 10.5 mph 10.5 mph 98 % 0.5 in
16:45 8.5 °F 9.0 °F 1018.8 in WSW 10.5 mph 10.5 mph 98 % 0.5 in
16:50 8.5 °F 9.0 °F 1018.8 in WSW 10.5 mph 10.5 mph 98 % 1.0 in
16:55 8.5 °F 9.0 °F 1018.8 in WSW 10.5 mph 10.5 mph 98 % 1.3 in
17:00 8.5 °F 9.0 °F 1018.8 in WSW 10.5 mph 10.5 mph 98 % 1.5 in
17:05 8.5 °F 9.0 °F 1018.8 in WSW 10.5 mph 10.5 mph 98 % 1.5 in
17:10 8.5 °F 9.0 °F 1018.2 in WSW 10.5 mph 10.5 mph 98 % 1.5 in
17:15 8.5 °F 9.0 °F 1018.2 in WSW 10.5 mph 10.5 mph 98 % 1.3 in
17:20 8.5 °F 9.0 °F 1018.2 in WSW 10.5 mph 10.5 mph 98 % 1.3 in
17:25 8.5 °F 9.0 °F 1018.8 in WSW 10.5 mph 10.5 mph 98 % 1.8 in
17:30 8.5 °F 9.0 °F 1018.8 in WSW 10.5 mph 10.5 mph 98 % 1.5 in
17:35 8.5 °F 9.0 °F 1018.8 in WSW 10.5 mph 10.5 mph 98 % 1.5 in
17:36 8.5 °F 9.0 °F 1018.8 in WSW 10.5 mph 10.5 mph 98 % 1.5 in
17:41 8.6 °F 9.0 °F 1018.8 in WSW 10.5 mph 10.5 mph 98 % 1.5 in
17:46 8.6 °F 9.0 °F 1018.8 in WSW 10.5 mph 10.5 mph 98 % 2.3 in
17:51 8.5 °F 9.0 °F 1018.8 in WSW 10.5 mph 10.5 mph 98 % 1.8 in
17:56 8.6 °F 9.0 °F 1018.8 in WSW 10.5 mph 10.5 mph 98 % 1.5 in
18:01 8.6 °F 9.0 °F 1018.8 in WSW 10.5 mph 10.5 mph 98 % 1.3 in
18:06 8.6 °F 9.0 °F 1018.8 in WSW 10.5 mph 10.5 mph 98 % 1.3 in
18:12 8.6 °F 9.0 °F 1018.8 in WSW 10.5 mph 10.5 mph 98 % 1.3 in
18:17 8.6 °F 9.0 °F 1018.8 in WSW 10.5 mph 10.5 mph 98 % 1.3 in
18:22 8.6 °F 9.0 °F 1018.8 in WSW 10.5 mph 10.5 mph 98 % 0.8 in
18:27 8.6 °F 9.0 °F 1018.8 in WSW 10.5 mph 10.5 mph 98 % 1.0 in
18:32 8.6 °F 9.0 °F 1018.8 in WSW 10.5 mph 10.5 mph 98 % 1.0 in
18:37 8.7 °F 9.0 °F 1018.8 in WSW 10.5 mph 10.5 mph 98 % 1.0 in
18:42 8.8 °F 9.0 °F 1018.8 in WSW 10.5 mph 10.5 mph 98 % 1.0 in
18:47 8.7 °F 9.0 °F 1018.8 in WSW 10.5 mph 10.5 mph 98 % 0.3 in
18:52 8.7 °F 9.0 °F 1018.8 in WSW 10.5 mph 10.5 mph 98 % 0.3 in
18:57 8.6 °F 9.0 °F 1018.8 in WSW 10.5 mph 10.5 mph 98 % 0.3 in
19:02 8.5 °F 9.0 °F 1018.8 in WSW 10.5 mph 10.5 mph 98 % 0.3 in
19:07 8.5 °F 9.0 °F 1018.8 in WSW 10.5 mph 10.5 mph 98 % 0.3 in
19:12 8.4 °F 9.0 °F 1018.8 in WSW 10.5 mph 10.5 mph 98 % 0.3 in
19:17 8.3 °F 9.0 °F 1018.8 in WSW 10.5 mph 10.5 mph 98 % 0.3 in
19:22 8.3 °F 9.0 °F 1018.8 in WSW 10.5 mph 10.5 mph 98 % 0.3 in
19:27 8.2 °F 8.0 °F 1018.8 in WSW 10.5 mph 10.5 mph 98 % 0.0 in
19:32 8.2 °F 8.0 °F 1018.8 in WSW 10.5 mph 10.5 mph 98 % 0.0 in
19:37 8.2 °F 8.0 °F 1018.8 in WSW 10.5 mph 10.5 mph 98 % 0.0 in
19:42 8.2 °F 8.0 °F 1018.2 in WSW 10.5 mph 10.5 mph 98 % 0.0 in
19:47 8.1 °F 8.0 °F 1018.2 in WSW 10.5 mph 10.5 mph 98 % 0.0 in
19:52 8.1 °F 8.0 °F 1018.2 in WSW 10.5 mph 10.5 mph 98 % 0.0 in
19:57 8.1 °F 8.0 °F 1018.2 in WSW 10.5 mph 10.5 mph 98 % 0.0 in
20:02 8.1 °F 8.0 °F 1018.2 in WSW 10.5 mph 10.5 mph 98 % 0.0 in
20:07 8.1 °F 8.0 °F 1018.2 in WSW 10.5 mph 10.5 mph 98 % 0.0 in
20:12 8.1 °F 8.0 °F 1018.2 in WSW 10.5 mph 10.5 mph 98 % 0.0 in
20:17 8.1 °F 8.0 °F 1018.2 in WSW 10.5 mph 10.5 mph 98 % 0.0 in
20:22 8.0 °F 8.0 °F 1018.2 in WSW 10.5 mph 10.5 mph 98 % 0.0 in
20:27 8.0 °F 8.0 °F 1018.2 in WSW 10.5 mph 10.5 mph 98 % 0.0 in
20:32 8.0 °F 8.0 °F 1018.2 in WSW 10.5 mph 10.5 mph 98 % 0.0 in
20:37 8.0 °F 8.0 °F 1018.2 in WSW 10.5 mph 10.5 mph 98 % 0.0 in
20:42 8.0 °F 8.0 °F 1018.2 in WSW 10.5 mph 10.5 mph 98 % 0.0 in
20:47 7.9 °F 8.0 °F 1018.2 in WSW 10.5 mph 10.5 mph 98 % 0.0 in
20:52 7.9 °F 8.0 °F 1018.2 in WSW 10.5 mph 10.5 mph 98 % 0.0 in
20:57 7.9 °F 8.0 °F 1018.2 in WSW 10.5 mph 10.5 mph 98 % 0.0 in
21:02 7.9 °F 8.0 °F 1018.2 in WSW 10.5 mph 10.5 mph 98 % 0.0 in
21:07 7.9 °F 8.0 °F 1018.2 in WSW 10.5 mph 10.5 mph 98 % 0.0 in
21:12 7.9 °F 8.0 °F 1018.2 in WSW 10.5 mph 10.5 mph 98 % 0.0 in
21:17 7.9 °F 8.0 °F 1018.2 in WSW 10.5 mph 10.5 mph 98 % 0.0 in
21:22 7.9 °F 8.0 °F 1018.2 in WSW 10.5 mph 10.5 mph 98 % 0.0 in
21:27 7.9 °F 8.0 °F 1018.2 in WSW 10.5 mph 10.5 mph 98 % 0.0 in
21:32 7.8 °F 8.0 °F 1018.2 in WSW 10.5 mph 10.5 mph 98 % 0.0 in
21:38 7.8 °F 8.0 °F 1018.2 in WSW 10.5 mph 10.5 mph 98 % 0.0 in
21:43 7.8 °F 8.0 °F 1018.2 in WSW 10.5 mph 10.5 mph 98 % 0.0 in
21:48 7.8 °F 8.0 °F 1018.2 in WSW 10.5 mph 10.5 mph 98 % 0.0 in
21:53 7.8 °F 8.0 °F 1018.2 in WSW 10.5 mph 10.5 mph 98 % 0.0 in
21:58 7.8 °F 8.0 °F 1018.2 in WSW 10.5 mph 10.5 mph 98 % 0.0 in
22:03 7.7 °F 8.0 °F 1018.2 in WSW 10.5 mph 10.5 mph 98 % 0.5 in
22:08 7.7 °F 8.0 °F 1018.2 in WSW 10.5 mph 10.5 mph 98 % 0.5 in
22:13 7.7 °F 8.0 °F 1018.2 in WSW 10.5 mph 10.5 mph 98 % 0.5 in
22:14 7.7 °F 8.0 °F 1018.2 in WSW 10.5 mph 10.5 mph 98 % 0.5 in
22:19 7.7 °F 8.0 °F 1018.2 in WSW 10.5 mph 10.5 mph 98 % 0.5 in
22:24 7.7 °F 8.0 °F 1018.2 in WSW 10.5 mph 10.5 mph 98 % 0.5 in
22:29 7.6 °F 8.0 °F 1018.2 in WSW 10.5 mph 10.5 mph 98 % 0.5 in
22:34 7.6 °F 8.0 °F 1018.2 in WSW 10.5 mph 10.5 mph 98 % 0.5 in
22:39 7.5 °F 8.0 °F 1018.2 in WSW 10.5 mph 10.5 mph 98 % 0.5 in
22:44 7.5 °F 8.0 °F 1016.8 in WSW 10.5 mph 10.5 mph 98 % 0.5 in
22:49 7.4 °F 7.0 °F 1016.8 in WSW 10.5 mph 10.5 mph 98 % 0.5 in
22:54 7.4 °F 7.0 °F 1016.8 in WSW 10.5 mph 10.5 mph 98 % 0.5 in
22:59 7.3 °F 7.0 °F 1018.2 in WSW 10.5 mph 10.5 mph 98 % 0.5 in
23:00 7.3 °F 7.0 °F 1018.2 in WSW 10.5 mph 10.5 mph 98 % 0.0 in
23:06 7.3 °F 7.0 °F 1018.2 in WSW 10.5 mph 10.5 mph 98 % 0.0 in
23:11 7.3 °F 7.0 °F 1018.2 in WSW 10.5 mph 10.5 mph 98 % 0.0 in
23:16 7.3 °F 7.0 °F 1018.2 in WSW 10.5 mph 10.5 mph 98 % 0.0 in
23:21 7.3 °F 7.0 °F 1018.2 in WSW 10.5 mph 10.5 mph 98 % 0.0 in
23:26 7.3 °F 7.0 °F 1018.2 in WSW 10.5 mph 10.5 mph 98 % 0.0 in
23:31 7.3 °F 7.0 °F 1018.2 in WSW 10.5 mph 10.5 mph 98 % 0.0 in
23:36 7.2 °F 7.0 °F 1018.2 in WSW 10.5 mph 10.5 mph 98 % 0.0 in
23:41 7.2 °F 7.0 °F 1016.8 in WSW 10.5 mph 10.5 mph 98 % 0.0 in
23:46 7.1 °F 7.0 °F 1016.8 in WSW 10.5 mph 10.5 mph 98 % 0.0 in
23:51 7.2 °F 7.0 °F 1016.8 in WSW 10.5 mph 10.5 mph 98 % 0.0 in
23:56 7.1 °F 7.0 °F 1016.8 in WSW 10.5 mph 10.5 mph 98 % 0.0 in
Le Gheer Warneton
Courtoisie de Weather Underground - 2.25 mb

Mise a jour : 18/02/2018 21:07:11
Généré par Cumulus 1.9.4 (1099)